Rifle, CO

5:06 AM MST en Enero 28, 2015 (GMT -0700)
Taughenbaugh Mesa | Change Station
CLOSE
Current Station
Estación meteorológica personal
Location: Rifle, CO
Altura: 5650 ft
Estaciones meteorológicas cercanas

Alt 5650 ft 39.50 °N, 107.85 °W | Updated 8 seconds ago

Clear
Despejado
27.2 ° F
Sensación térmica 27 ° F
N
0.0
Viento Variable Viento desde SSO
Gusts 0.0 mph

Hoy
Alta -- | Baja -- ° F
--% Posibilidad de precipitaciones
Ayer
Alta -- | Baja -- ° F
Precip. -- pul
7:22 AM 5:26 PM
Gibosa creciente, 64% visible
Presión 30.25 pul
Visibilidad 10.0 Millas
Nubes Despejado
Vientos helados 27 ° F
Punto de rocío 23 ° F
Humedad 85%
Precipitaciones 0.00 pul
Espesor de la nieve No disponible.
UV 0 de una escala de 12
Polen .10 de una escala de 12
Calidad del aire No disponible.
Flu Activity No disponible.
METAR KRIL 281153Z AUTO 10003KT 10SM CLR M02/M04 A3025 RMK AO2 SLP243 T10171044 10022 21028 51004

More Conditions Fewer Conditions

Presión 30.25 pul
Visibilidad 10.0 Millas
Nubes Despejado
Vientos helados 27 ° F
Punto de rocío 23 ° F
Humedad 85%
Precipitaciones 0.00 pul
Espesor de la nieve No disponible.
UV 0 de una escala de 12
Polen .10 de una escala de 12
Calidad del aire No disponible.
Flu Activity No disponible.
METAR KRIL 281153Z AUTO 10003KT 10SM CLR M02/M04 A3025 RMK AO2 SLP243 T10171044 10022 21028 51004

More Conditions Fewer Conditions

10-Day Weather Forecast

Almanac

Astronomía

Jan. 28, 2015 Salida Puesta
Hora real
Crepúsculo civil
Crepúsculo náutico
Crepúsculo astronómico
Luna
Horas de luz
Horas de luz
Tomorrow will be .
, % of the Moon is Illuminated

Extremos de hoy

Máximos del estado Bajos del estado

Community

WunderPhotos

Upload Photos

1,791,127 ¡fotos cargadas!

WunderBlogs® & News

Nearby

Calidad del aire

  Calidad del aire Índice AQ Contaminante
Not available.

Grosos de nieve

Estación Profundido Altura

Actividad de terremotos

Ciudad Distance Mag. Tiempo y dato
Magnitud mínima muestra es 2,5.

Temperaturas de aguas costeras

Lugar Temperatura

Estaciones meteorológicas cercanas